Time;durP1;ratioP1;P1;durP2;ratioP2;P2;SDS_P1;SDS_P2;PMS_P1;PMS_P2;Temp;Humidity;BMP_temperature;BMP_pressure;BME280_temperature;BME280_humidity;BME280_pressure;Samples;Min_cycle;Max_cycle;Signal;HPM_P1;HPM_P2
2023/02/24 00:01:27;;;;;;;5.05;2.40;;;8.20;82.20;;;;;;4881143;29;20105;-83
2023/02/24 00:03:59;;;;;;;5.07;2.88;;;8.20;82.30;;;;;;4880057;29;20394;-84
2023/02/24 00:06:39;;;;;;;4.40;2.90;;;8.10;82.30;;;;;;4880997;29;20033;-84
2023/02/24 00:09:15;;;;;;;6.07;3.00;;;8.10;82.30;;;;;;4880570;29;20060;-82
2023/02/24 00:11:45;;;;;;;5.57;3.30;;;8.10;82.20;;;;;;4865048;29;20032;-84
2023/02/24 00:14:15;;;;;;;4.13;2.70;;;8.10;82.30;;;;;;4865185;29;20394;-83
2023/02/24 00:16:43;;;;;;;5.00;2.70;;;8.10;82.30;;;;;;4864863;29;20017;-83
2023/02/24 00:19:12;;;;;;;4.55;2.58;;;8.00;82.20;;;;;;4879938;29;20025;-83
2023/02/24 00:21:39;;;;;;;5.93;2.53;;;8.00;82.20;;;;;;4864334;29;20429;-84
2023/02/24 00:24:05;;;;;;;4.97;2.67;;;8.00;82.20;;;;;;4879961;29;20485;-83
2023/02/24 00:26:31;;;;;;;3.80;2.40;;;8.00;82.30;;;;;;4881104;29;20096;-84
2023/02/24 00:28:59;;;;;;;3.72;2.72;;;7.90;82.20;;;;;;4879661;29;20040;-83
2023/02/24 00:31:29;;;;;;;4.60;2.30;;;7.90;82.20;;;;;;4864492;29;20108;-84
2023/02/24 00:33:56;;;;;;;4.95;3.30;;;7.90;82.30;;;;;;4880611;29;20033;-83
2023/02/24 00:36:24;;;;;;;3.88;2.30;;;7.80;82.20;;;;;;4864319;29;20123;-83
2023/02/24 00:38:56;;;;;;;3.78;2.50;;;7.80;82.20;;;;;;4879325;29;20037;-83
2023/02/24 00:41:28;;;;;;;3.85;2.40;;;7.80;82.20;;;;;;4849596;29;20064;-83
2023/02/24 00:43:58;;;;;;;;;;;7.70;82.20;;;;;;4880070;29;20425;-85
2023/02/24 00:46:25;;;;;;;3.00;2.08;;;7.70;82.10;;;;;;4880371;29;20329;-84
2023/02/24 00:48:55;;;;;;;3.08;2.33;;;7.70;82.10;;;;;;4863788;29;20029;-84
2023/02/24 00:51:24;;;;;;;4.03;2.33;;;7.70;82.10;;;;;;4880317;29;20467;-83
2023/02/24 00:53:54;;;;;;;6.00;2.85;;;7.70;82.20;;;;;;4864086;29;20467;-84
2023/02/24 00:56:22;;;;;;;5.65;2.65;;;7.60;82.10;;;;;;4880596;29;20474;-84
2023/02/24 00:58:48;;;;;;;3.55;2.60;;;7.60;82.10;;;;;;4879456;29;20049;-84
2023/02/24 01:01:16;;;;;;;3.80;2.60;;;7.60;82.10;;;;;;4864038;29;20177;-84
2023/02/24 01:03:43;;;;;;;4.22;2.50;;;7.60;82.10;;;;;;4863613;29;20076;-83
2023/02/24 01:06:13;;;;;;;5.18;2.83;;;7.50;82.10;;;;;;4863956;29;20037;-83
2023/02/24 01:08:46;;;;;;;3.58;2.50;;;7.50;82.10;;;;;;4879224;29;20037;-81
2023/02/24 01:13:57;;;;;;;3.85;2.60;;;7.40;82.10;;;;;;4880409;29;20177;-84
2023/02/24 01:16:23;;;;;;;4.20;2.53;;;7.40;82.10;;;;;;4863813;29;20496;-84
2023/02/24 01:18:51;;;;;;;4.53;2.80;;;7.40;82.10;;;;;;4864192;29;20073;-84
2023/02/24 01:21:18;;;;;;;3.47;2.42;;;7.40;82.10;;;;;;4863912;29;20036;-84
2023/02/24 01:23:49;;;;;;;4.18;2.90;;;7.30;82.10;;;;;;4864050;29;20036;-84
2023/02/24 01:26:16;;;;;;;4.50;3.13;;;7.30;82.10;;;;;;4879368;29;20084;-84
2023/02/24 01:28:46;;;;;;;4.65;2.70;;;7.30;82.10;;;;;;4879389;29;20041;-83
2023/02/24 01:31:19;;;;;;;3.38;2.33;;;7.30;82.10;;;;;;4849168;29;20119;-82
2023/02/24 01:33:51;;;;;;;3.88;2.60;;;7.30;82.10;;;;;;4879411;29;20085;-84
2023/02/24 01:36:26;;;;;;;4.72;3.08;;;7.20;82.00;;;;;;4878667;29;20033;-83
2023/02/24 01:38:53;;;;;;;4.30;3.10;;;7.20;82.00;;;;;;4879132;29;20036;-84
2023/02/24 01:41:22;;;;;;;6.53;3.15;;;7.20;82.00;;;;;;4863947;29;20025;-82
2023/02/24 01:43:57;;;;;;;4.20;2.53;;;7.20;82.10;;;;;;4878923;29;20509;-83
2023/02/24 01:46:25;;;;;;;5.35;3.17;;;7.20;82.10;;;;;;4863706;29;20033;-84
2023/02/24 01:48:56;;;;;;;4.57;2.90;;;7.10;82.00;;;;;;4878996;29;20041;-83
2023/02/24 01:51:23;;;;;;;3.58;2.72;;;7.10;82.00;;;;;;4879120;29;20041;-83
2023/02/24 01:53:50;;;;;;;5.05;2.92;;;7.10;82.10;;;;;;4849016;29;20446;-83
2023/02/24 01:56:16;;;;;;;4.93;2.95;;;7.00;82.00;;;;;;4863545;29;20044;-84
2023/02/24 01:58:42;;;;;;;4.03;2.70;;;7.00;82.00;;;;;;4878891;29;20049;-84
2023/02/24 02:01:09;;;;;;;6.00;3.03;;;7.00;82.00;;;;;;4863556;29;20120;-83
2023/02/24 02:03:40;;;;;;;6.07;2.90;;;6.90;81.90;;;;;;4878723;29;20025;-84
2023/02/24 02:06:09;;;;;;;4.60;2.63;;;7.00;82.00;;;;;;4864248;29;20049;-83
2023/02/24 02:08:39;;;;;;;4.70;3.08;;;6.90;82.00;;;;;;4878957;29;20048;-83
2023/02/24 02:11:09;;;;;;;5.22;3.42;;;6.90;82.00;;;;;;4878784;29;20029;-82
2023/02/24 02:13:38;;;;;;;6.03;2.90;;;6.90;82.00;;;;;;4865266;29;20127;-83
2023/02/24 02:16:42;;;;;;;4.10;2.45;;;6.90;82.00;;;;;;4882491;29;20113;-83
2023/02/24 02:19:20;;;;;;;5.47;2.80;;;6.80;82.00;;;;;;4881549;29;20049;-84
2023/02/24 02:22:07;;;;;;;6.57;2.95;;;6.80;81.90;;;;;;4866437;29;20029;-83
2023/02/24 02:24:35;;;;;;;4.80;2.85;;;6.80;82.00;;;;;;4882729;29;20470;-83
2023/02/24 02:27:38;;;;;;;4.25;2.50;;;6.70;81.90;;;;;;4883204;29;20487;-83
2023/02/24 02:30:15;;;;;;;5.15;3.05;;;6.70;82.00;;;;;;4881871;29;20093;-83
2023/02/24 02:33:09;;;;;;;4.18;2.90;;;6.70;82.00;;;;;;4883211;29;20037;-83
2023/02/24 02:36:05;;;;;;;4.07;2.90;;;6.70;82.00;;;;;;4866606;29;20033;-83
2023/02/24 02:38:38;;;;;;;3.95;2.63;;;6.60;82.00;;;;;;4881862;29;20128;-83
2023/02/24 02:41:33;;;;;;;3.92;3.15;;;6.60;82.00;;;;;;4881942;29;20039;-83
2023/02/24 02:44:17;;;;;;;4.68;2.90;;;6.60;82.00;;;;;;4882531;29;20123;-83
2023/02/24 02:46:45;;;;;;;4.10;2.90;;;6.60;82.00;;;;;;4882046;29;20064;-83
2023/02/24 02:49:29;;;;;;;5.28;3.10;;;6.60;81.90;;;;;;4881802;29;20124;-83
2023/02/24 02:52:04;;;;;;;5.68;2.70;;;6.50;81.90;;;;;;4866328;29;20056;-82
2023/02/24 02:54:35;;;;;;;4.15;2.70;;;6.50;81.90;;;;;;4881341;29;20101;-82
2023/02/24 02:57:13;;;;;;;4.93;2.95;;;6.50;81.90;;;;;;4882422;29;20029;-83
2023/02/24 02:59:48;;;;;;;5.25;2.90;;;6.50;82.00;;;;;;4881891;29;20496;-81
2023/02/24 03:02:19;;;;;;;6.22;2.97;;;6.50;81.90;;;;;;4881314;29;20119;-83
2023/02/24 03:04:53;;;;;;;4.97;2.78;;;6.40;81.90;;;;;;4881870;29;20128;-83
2023/02/24 03:07:23;;;;;;;4.20;2.50;;;6.40;81.90;;;;;;4866162;29;20044;-83
2023/02/24 03:09:55;;;;;;;3.55;2.55;;;6.40;81.90;;;;;;4881196;29;20029;-83
2023/02/24 03:12:24;;;;;;;4.22;2.83;;;6.40;81.90;;;;;;4881183;29;20025;-83
2023/02/24 03:14:59;;;;;;;4.07;2.85;;;6.30;81.80;;;;;;4881092;29;20064;-83
2023/02/24 03:17:29;;;;;;;3.45;2.45;;;6.30;81.80;;;;;;4881388;29;20116;-83
2023/02/24 03:20:42;;;;;;;4.95;2.78;;;6.30;81.90;;;;;;4881176;29;20037;-83
2023/02/24 03:23:29;;;;;;;2.80;2.28;;;6.30;81.90;;;;;;4870568;29;20041;-83
2023/02/24 03:26:20;;;;;;;4.45;2.65;;;6.20;81.80;;;;;;4864486;29;20049;-84
2023/02/24 03:29:16;;;;;;;4.68;2.47;;;6.20;81.80;;;;;;4865742;29;20382;-83
2023/02/24 03:31:52;;;;;;;5.25;2.83;;;6.20;81.80;;;;;;4865330;29;20048;-83
2023/02/24 03:34:59;;;;;;;4.68;2.63;;;6.20;81.90;;;;;;4865265;29;20037;-83
2023/02/24 03:37:29;;;;;;;4.25;2.50;;;6.10;81.80;;;;;;4880389;29;20032;-83
2023/02/24 03:39:58;;;;;;;4.35;2.50;;;6.10;81.80;;;;;;4865356;29;20104;-84
2023/02/24 03:42:30;;;;;;;4.80;2.85;;;6.10;81.80;;;;;;4865339;29;20025;-83
2023/02/24 03:44:57;;;;;;;3.00;2.30;;;6.10;81.80;;;;;;4881653;29;20045;-83
2023/02/24 03:47:24;;;;;;;5.32;2.78;;;6.10;81.80;;;;;;4865508;29;20033;-83
2023/02/24 03:49:51;;;;;;;3.85;2.53;;;6.10;81.90;;;;;;4880807;29;20469;-83
2023/02/24 03:52:31;;;;;;;3.17;2.42;;;6.00;81.80;;;;;;4849995;29;20029;-83
2023/02/24 03:55:36;;;;;;;3.40;2.30;;;6.00;81.80;;;;;;4864709;29;20037;-83
2023/02/24 03:58:35;;;;;;;2.97;2.38;;;6.00;81.80;;;;;;4864574;29;20053;-83
2023/02/24 04:01:13;;;;;;;3.13;2.28;;;6.00;81.70;;;;;;4865219;29;20088;-83
2023/02/24 04:03:56;;;;;;;4.85;2.35;;;6.00;81.80;;;;;;4864525;29;20191;-83
2023/02/24 04:06:41;;;;;;;3.78;2.67;;;5.90;81.80;;;;;;4866036;29;20041;-84
2023/02/24 04:09:39;;;;;;;3.08;2.08;;;5.90;81.80;;;;;;4864547;29;20121;-82
2023/02/24 04:12:25;;;;;;;4.22;2.72;;;5.90;81.80;;;;;;4864229;29;20101;-83
2023/02/24 04:14:56;;;;;;;3.72;2.50;;;5.90;81.80;;;;;;4865134;29;20068;-83
2023/02/24 04:17:30;;;;;;;4.20;2.42;;;5.80;81.70;;;;;;4864843;29;20033;-83
2023/02/24 04:20:08;;;;;;;3.95;2.75;;;5.90;81.80;;;;;;4880314;29;20033;-83
2023/02/24 04:22:36;;;;;;;3.95;2.38;;;5.80;81.70;;;;;;4864632;29;20029;-83
2023/02/24 04:25:05;;;;;;;3.78;2.33;;;5.80;81.80;;;;;;4864803;29;20033;-83
2023/02/24 04:27:31;;;;;;;4.68;2.28;;;5.80;81.70;;;;;;4864505;29;20037;-83
2023/02/24 04:30:11;;;;;;;3.72;2.30;;;5.80;81.80;;;;;;4866815;29;20473;-83
2023/02/24 04:32:37;;;;;;;2.85;2.20;;;5.70;81.70;;;;;;4848911;29;20086;-83
2023/02/24 04:35:08;;;;;;;3.67;2.70;;;5.80;81.70;;;;;;4864261;29;20116;-83
2023/02/24 04:37:35;;;;;;;6.05;2.75;;;5.80;81.70;;;;;;4864187;29;20029;-83
2023/02/24 04:40:09;;;;;;;3.85;2.60;;;5.80;81.70;;;;;;4848876;29;20398;-83
2023/02/24 04:42:45;;;;;;;5.07;2.70;;;5.80;81.70;;;;;;4879658;29;20033;-83
2023/02/24 04:45:15;;;;;;;5.15;2.67;;;5.70;81.70;;;;;;4879593;29;20104;-83
2023/02/24 04:47:44;;;;;;;4.13;2.58;;;5.80;81.70;;;;;;4879097;29;20031;-83
2023/02/24 04:50:21;;;;;;;3.95;2.65;;;5.70;81.70;;;;;;4864569;29;20037;-84
2023/02/24 04:52:51;;;;;;;3.92;2.60;;;5.70;81.70;;;;;;4879918;29;20041;-83
2023/02/24 04:55:21;;;;;;;3.00;2.47;;;5.70;81.70;;;;;;4864144;29;20025;-84
2023/02/24 04:57:57;;;;;;;3.85;2.90;;;5.70;81.70;;;;;;4864074;29;20029;-83
2023/02/24 05:00:25;;;;;;;4.43;2.67;;;5.70;81.70;;;;;;4879551;29;20060;-82
2023/02/24 05:02:53;;;;;;;4.35;3.10;;;5.70;81.70;;;;;;4864056;29;20037;-83
2023/02/24 05:05:24;;;;;;;4.03;2.65;;;5.70;81.70;;;;;;4864088;29;20122;-83
2023/02/24 05:08:02;;;;;;;5.00;3.13;;;5.70;81.70;;;;;;4864014;29;20128;-84
2023/02/24 05:10:30;;;;;;;4.03;2.55;;;5.70;81.70;;;;;;4879816;29;20033;-84
2023/02/24 05:13:00;;;;;;;4.32;2.83;;;5.70;81.70;;;;;;4863868;29;20052;-84
2023/02/24 05:15:31;;;;;;;3.30;2.33;;;5.70;81.70;;;;;;4849625;29;20037;-84
2023/02/24 05:17:58;;;;;;;3.85;2.55;;;5.70;81.70;;;;;;4879966;29;20108;-84
2023/02/24 05:23:10;;;;;;;3.65;2.80;;;5.70;81.60;;;;;;4879381;29;20496;-83
2023/02/24 05:25:36;;;;;;;3.55;2.47;;;5.70;81.60;;;;;;4879678;29;20029;-83
2023/02/24 05:28:06;;;;;;;5.70;3.00;;;5.70;81.60;;;;;;4863845;29;20037;-83
2023/02/24 05:30:32;;;;;;;3.28;2.53;;;5.70;81.70;;;;;;4880271;29;20033;-83
2023/02/24 05:32:58;;;;;;;3.17;2.50;;;5.60;81.60;;;;;;4879156;29;20044;-84
2023/02/24 05:35:25;;;;;;;5.93;2.95;;;5.70;81.70;;;;;;4864202;29;20041;-83
2023/02/24 05:37:50;;;;;;;4.18;2.75;;;5.70;81.70;;;;;;4879789;29;20182;-83
2023/02/24 05:40:21;;;;;;;4.40;2.78;;;5.70;81.70;;;;;;4863324;29;20089;-82
2023/02/24 05:42:48;;;;;;;5.38;2.97;;;5.60;81.60;;;;;;4849524;29;20462;-82
2023/02/24 05:45:14;;;;;;;3.40;2.65;;;5.60;81.70;;;;;;4863659;29;20029;-83
2023/02/24 05:47:45;;;;;;;5.35;3.10;;;5.60;81.70;;;;;;4863672;29;20177;-83
2023/02/24 05:50:12;;;;;;;5.40;3.00;;;5.60;81.70;;;;;;4883291;29;20473;-84
2023/02/24 05:52:38;;;;;;;5.10;2.72;;;5.60;81.70;;;;;;4867080;29;20029;-84
2023/02/24 05:55:12;;;;;;;3.40;3.05;;;5.60;81.70;;;;;;4882401;29;20124;-82
2023/02/24 05:57:40;;;;;;;4.18;2.67;;;5.60;81.70;;;;;;4882344;29;20037;-83
2023/02/24 06:00:24;;;;;;;6.68;2.72;;;5.60;81.70;;;;;;4867185;29;20061;-84
2023/02/24 06:02:51;;;;;;;3.75;2.65;;;5.60;81.60;;;;;;4882168;29;20036;-83
2023/02/24 06:05:26;;;;;;;3.97;2.70;;;5.60;81.60;;;;;;4866742;29;20033;-83
2023/02/24 06:08:03;;;;;;;5.45;2.67;;;5.60;81.60;;;;;;4852323;29;20044;-83
2023/02/24 06:10:32;;;;;;;4.35;2.83;;;5.60;81.60;;;;;;4882224;29;20089;-83
2023/02/24 06:12:59;;;;;;;4.35;2.78;;;5.60;81.60;;;;;;4883213;29;20032;-83
2023/02/24 06:15:26;;;;;;;4.15;2.85;;;5.60;81.70;;;;;;4866501;29;20112;-83
2023/02/24 06:17:55;;;;;;;4.10;2.60;;;5.60;81.70;;;;;;4866807;29;20128;-83
2023/02/24 06:20:25;;;;;;;4.70;2.60;;;5.60;81.60;;;;;;4866363;29;20088;-83
2023/02/24 06:22:53;;;;;;;4.13;2.78;;;5.60;81.70;;;;;;4866556;29;20032;-82
2023/02/24 06:25:25;;;;;;;4.38;2.90;;;5.60;81.70;;;;;;4882922;29;20029;-84
2023/02/24 06:27:54;;;;;;;3.85;2.70;;;5.60;81.70;;;;;;4881753;29;20036;-83
2023/02/24 06:30:24;;;;;;;4.95;2.70;;;5.60;81.70;;;;;;4866170;29;20029;-85
2023/02/24 06:32:52;;;;;;;4.28;2.95;;;5.60;81.80;;;;;;4866412;29;20128;-83
2023/02/24 06:35:20;;;;;;;2.70;2.30;;;5.60;81.70;;;;;;4881375;29;20029;-83
2023/02/24 06:37:46;;;;;;;5.05;2.90;;;5.60;81.70;;;;;;4881725;29;20040;-83
2023/02/24 06:40:18;;;;;;;7.25;2.85;;;5.60;81.70;;;;;;4882470;29;20029;-83
2023/02/24 06:42:49;;;;;;;5.05;2.70;;;5.60;82.30;;;;;;4881175;29;20089;-83
2023/02/24 06:45:15;;;;;;;3.72;2.60;;;5.60;81.70;;;;;;4866049;29;20037;-83
2023/02/24 06:47:47;;;;;;;5.65;2.70;;;5.60;81.70;;;;;;4866341;29;20115;-82
2023/02/24 06:50:19;;;;;;;4.20;2.55;;;5.60;81.70;;;;;;4881204;29;20033;-83
2023/02/24 06:52:48;;;;;;;4.60;2.80;;;5.60;81.70;;;;;;4866571;29;20040;-82
2023/02/24 06:55:24;;;;;;;4.55;2.72;;;5.60;81.70;;;;;;4865780;29;20033;-83
2023/02/24 06:58:03;;;;;;;3.50;2.45;;;5.60;81.70;;;;;;4865871;29;20120;-84
2023/02/24 07:00:40;;;;;;;3.08;2.50;;;5.70;81.80;;;;;;4865891;29;20057;-83
2023/02/24 07:03:17;;;;;;;3.75;2.30;;;5.60;81.70;;;;;;4881238;29;20037;-82
2023/02/24 07:05:49;;;;;;;3.45;2.45;;;5.60;81.70;;;;;;4865639;29;20037;-82
2023/02/24 07:08:21;;;;;;;2.75;2.40;;;5.60;81.70;;;;;;4880874;29;20025;-82
2023/02/24 07:10:58;;;;;;;2.95;2.50;;;5.60;81.70;;;;;;4881632;29;20037;-82
2023/02/24 07:13:28;;;;;;;4.07;2.30;;;5.60;81.70;;;;;;4865701;29;20108;-83
2023/02/24 07:15:55;;;;;;;3.40;2.50;;;5.70;81.70;;;;;;4850368;29;20060;-81
2023/02/24 07:18:21;;;;;;;3.33;2.53;;;5.60;82.00;;;;;;4880539;29;20025;-83
2023/02/24 07:20:48;;;;;;;3.63;2.60;;;5.60;81.70;;;;;;4880835;29;20053;-83
2023/02/24 07:23:17;;;;;;;2.30;2.10;;;5.60;81.80;;;;;;4881067;29;20033;-83
2023/02/24 07:25:45;;;;;;;3.17;2.50;;;5.60;81.80;;;;;;4880782;29;20068;-81
2023/02/24 07:28:12;;;;;;;4.82;2.67;;;5.70;81.80;;;;;;4880731;29;20128;-83
2023/02/24 07:30:39;;;;;;;3.25;2.53;;;5.60;81.80;;;;;;4880545;29;20129;-83
2023/02/24 07:33:06;;;;;;;4.60;2.63;;;5.70;81.80;;;;;;4865635;29;20037;-83
2023/02/24 07:35:34;;;;;;;3.20;2.45;;;5.60;81.70;;;;;;4880149;29;20089;-84
2023/02/24 07:38:03;;;;;;;3.65;2.55;;;5.70;81.80;;;;;;4880235;29;20037;-82
2023/02/24 07:40:33;;;;;;;3.15;2.50;;;5.70;81.80;;;;;;4881070;29;20032;-83
2023/02/24 07:43:05;;;;;;;3.05;2.35;;;5.70;81.80;;;;;;4849619;29;20044;-82
2023/02/24 07:45:31;;;;;;;4.13;2.50;;;5.70;81.80;;;;;;4880234;29;20037;-82
2023/02/24 07:47:56;;;;;;;5.18;2.60;;;5.70;81.70;;;;;;4879543;29;20508;-82
2023/02/24 07:50:22;;;;;;;4.15;2.50;;;5.70;81.80;;;;;;4879930;29;20036;-83
2023/02/24 07:52:48;;;;;;;4.28;2.33;;;5.70;81.80;;;;;;4849211;29;20033;-83
2023/02/24 07:55:15;;;;;;;3.20;2.47;;;5.70;81.80;;;;;;4879948;29;20129;-82
2023/02/24 07:57:45;;;;;;;4.50;2.40;;;5.70;81.80;;;;;;4880313;29;20077;-82
2023/02/24 08:00:18;;;;;;;3.60;2.53;;;5.70;81.80;;;;;;4880080;29;20052;-83
2023/02/24 08:02:48;;;;;;;2.50;2.15;;;5.70;81.80;;;;;;4850058;29;20041;-84
2023/02/24 08:05:16;;;;;;;3.42;2.30;;;5.70;81.80;;;;;;4880822;29;20060;-84
2023/02/24 08:07:48;;;;;;;3.10;2.30;;;5.70;81.80;;;;;;4865130;29;20140;-82
2023/02/24 08:10:24;;;;;;;2.92;2.05;;;5.70;81.80;;;;;;4865696;29;20070;-83
2023/02/24 08:13:01;;;;;;;2.95;2.10;;;5.70;81.80;;;;;;4881090;29;20493;-83
2023/02/24 08:15:32;;;;;;;2.75;2.20;;;5.70;81.80;;;;;;4865406;29;20029;-84
2023/02/24 08:17:59;;;;;;;3.13;2.22;;;5.80;81.80;;;;;;4866086;29;20124;-83
2023/02/24 08:23:17;;;;;;;2.15;1.90;;;5.80;81.90;;;;;;4880880;29;20471;-83
2023/02/24 08:25:44;;;;;;;3.10;2.13;;;5.80;81.90;;;;;;4865971;29;20056;-83
2023/02/24 08:28:10;;;;;;;4.15;2.20;;;5.80;81.90;;;;;;4865197;29;20037;-82
2023/02/24 08:30:43;;;;;;;2.38;1.95;;;5.80;81.90;;;;;;4880884;29;20029;-85
2023/02/24 08:33:15;;;;;;;2.85;1.92;;;5.80;81.90;;;;;;4864539;29;20033;-83
2023/02/24 08:35:43;;;;;;;2.60;2.00;;;5.80;81.90;;;;;;4879827;29;20123;-83
2023/02/24 08:38:21;;;;;;;2.30;2.10;;;5.80;81.90;;;;;;4864989;29;20348;-83
2023/02/24 08:40:52;;;;;;;2.20;1.95;;;5.80;81.90;;;;;;4864995;29;20044;-83
2023/02/24 08:46:24;;;;;;;1.88;1.75;;;5.90;81.90;;;;;;4880400;29;20071;-83
2023/02/24 08:48:56;;;;;;;2.35;1.95;;;5.90;81.90;;;;;;4864445;29;20128;-85
2023/02/24 08:51:29;;;;;;;2.65;1.83;;;5.90;81.90;;;;;;4879770;29;20500;-86
2023/02/24 08:53:58;;;;;;;2.42;1.83;;;5.90;81.90;;;;;;4864396;29;20040;-85
2023/02/24 08:56:33;;;;;;;2.33;1.95;;;5.90;81.90;;;;;;4879559;29;20056;-86
2023/02/24 08:59:04;;;;;;;3.45;2.50;;;6.00;82.00;;;;;;4879842;29;20057;-84
2023/02/24 09:01:51;;;;;;;3.05;2.10;;;6.00;81.90;;;;;;4864232;29;20040;-86
2023/02/24 09:04:18;;;;;;;1.90;1.70;;;6.00;81.90;;;;;;4864057;29;20060;-85
2023/02/24 09:06:56;;;;;;;2.88;2.05;;;6.00;81.80;;;;;;4879370;29;20127;-84
2023/02/24 09:09:23;;;;;;;2.10;1.77;;;6.00;81.90;;;;;;4879922;29;20180;-87
2023/02/24 09:11:58;;;;;;;2.88;1.85;;;6.00;81.90;;;;;;4879614;29;20017;-86
2023/02/24 09:14:26;;;;;;;;;;;6.10;82.00;;;;;;4864312;29;20127;-85
2023/02/24 09:17:01;;;;;;;3.10;2.00;;;6.00;81.70;;;;;;4879712;29;19908;-85
2023/02/24 09:22:54;;;;;;;3.70;1.80;;;6.10;81.90;;;;;;4881121;29;20037;-86
2023/02/24 09:25:22;;;;;;;3.47;1.80;;;6.10;81.90;;;;;;4882868;29;20045;-85
2023/02/24 09:28:15;;;;;;;2.85;1.85;;;6.10;82.40;;;;;;4868134;29;20033;-84
2023/02/24 09:30:53;;;;;;;3.00;1.80;;;6.10;81.90;;;;;;4884040;29;20055;-85
2023/02/24 09:33:24;;;;;;;3.13;2.05;;;6.10;81.90;;;;;;4883871;29;20096;-84
2023/02/24 09:35:51;;;;;;;1.95;1.80;;;6.10;81.90;;;;;;4867501;29;20037;-85
2023/02/24 09:38:41;;;;;;;2.63;1.80;;;6.20;81.90;;;;;;4882882;29;20033;-86
2023/02/24 09:41:32;;;;;;;2.55;1.70;;;6.20;82.00;;;;;;4883087;29;20040;-86
2023/02/24 09:44:06;;;;;;;2.13;1.95;;;6.20;81.90;;;;;;4867548;29;20534;-83
2023/02/24 09:46:52;;;;;;;4.22;1.95;;;6.20;81.90;;;;;;4883036;29;20044;-86
2023/02/24 09:49:22;;;;;;;2.88;1.70;;;6.30;82.00;;;;;;4867488;29;20089;-83
2023/02/24 09:51:59;;;;;;;2.28;1.85;;;6.30;81.90;;;;;;4882838;29;20037;-86
2023/02/24 09:54:34;;;;;;;3.13;1.90;;;6.30;82.00;;;;;;4868459;29;20060;-85
2023/02/24 09:57:09;;;;;;;;;;;6.30;82.00;;;;;;4883438;29;20057;-85
2023/02/24 10:00:23;;;;;;;1.93;1.70;;;6.30;81.80;;;;;;4882398;29;19972;-85
2023/02/24 10:03:02;;;;;;;2.33;1.73;;;6.40;81.80;;;;;;4882504;29;20040;-85
2023/02/24 10:05:57;;;;;;;2.05;1.70;;;6.40;81.80;;;;;;4882657;29;20120;-84
2023/02/24 10:08:33;;;;;;;3.75;1.90;;;6.40;82.00;;;;;;4882549;29;20033;-86
2023/02/24 10:11:05;;;;;;;2.53;1.85;;;6.40;81.90;;;;;;4867190;29;20044;-86
2023/02/24 10:13:53;;;;;;;1.73;1.60;;;6.40;81.90;;;;;;4882646;29;20037;-85
2023/02/24 10:16:25;;;;;;;2.40;1.73;;;6.40;82.00;;;;;;4882305;29;20124;-85
2023/02/24 10:19:13;;;;;;;4.13;1.95;;;6.50;82.10;;;;;;4882467;29;20060;-85
2023/02/24 10:22:01;;;;;;;2.47;1.88;;;6.50;82.00;;;;;;4881932;29;20036;-86
2023/02/24 10:25:00;;;;;;;1.85;1.70;;;6.50;82.10;;;;;;4866988;29;20037;-83
2023/02/24 10:27:31;;;;;;;2.65;1.75;;;6.50;82.10;;;;;;4866629;29;20438;-85
2023/02/24 10:30:26;;;;;;;1.95;1.75;;;6.60;82.00;;;;;;4882136;29;20069;-85
2023/02/24 10:32:59;;;;;;;2.83;1.80;;;6.60;82.10;;;;;;4882508;29;20033;-85
2023/02/24 10:35:32;;;;;;;1.92;1.77;;;6.60;82.10;;;;;;4865782;29;20033;-85
2023/02/24 10:38:04;;;;;;;2.53;1.88;;;6.60;82.10;;;;;;4883147;29;20037;-84
2023/02/24 10:40:45;;;;;;;2.80;1.90;;;6.70;82.10;;;;;;4882716;29;20029;-85
2023/02/24 10:43:28;;;;;;;2.47;1.70;;;6.70;82.10;;;;;;4866687;29;20446;-84
2023/02/24 10:46:04;;;;;;;2.38;1.88;;;6.70;82.10;;;;;;4866558;29;20483;-85
2023/02/24 10:48:38;;;;;;;1.80;1.70;;;6.70;82.10;;;;;;4882447;29;20041;-86
2023/02/24 10:51:17;;;;;;;3.05;1.98;;;6.70;82.10;;;;;;4881974;29;20041;-84
2023/02/24 10:53:52;;;;;;;2.15;1.90;;;6.80;82.20;;;;;;4867111;29;20527;-84
2023/02/24 10:59:40;;;;;;;4.10;2.55;;;6.80;82.10;;;;;;4869074;29;20064;-84
2023/02/24 11:02:28;;;;;;;3.35;1.92;;;6.90;82.20;;;;;;4881350;29;20038;-85
2023/02/24 11:07:52;;;;;;;3.42;1.95;;;6.90;82.20;;;;;;4882680;29;20093;-86
2023/02/24 11:10:25;;;;;;;2.70;1.90;;;6.90;82.10;;;;;;4881667;29;20033;-86
2023/02/24 11:18:30;;;;;;;2.28;2.05;;;7.00;82.30;;;;;;4882102;29;20041;-84
2023/02/24 11:20:59;;;;;;;3.17;2.20;;;7.00;82.20;;;;;;4881226;29;20025;-84
2023/02/24 11:23:39;;;;;;;2.35;2.15;;;7.00;82.30;;;;;;4881081;29;20120;-85
2023/02/24 11:26:15;;;;;;;3.50;2.20;;;7.00;82.30;;;;;;4865956;29;20037;-85
2023/02/24 11:29:03;;;;;;;2.58;2.10;;;7.00;82.30;;;;;;4866402;29;20123;-84
2023/02/24 11:31:43;;;;;;;2.65;1.98;;;7.10;82.30;;;;;;4881206;29;20033;-88
2023/02/24 11:34:18;;;;;;;3.67;2.28;;;7.10;82.30;;;;;;4880764;29;20047;-86
2023/02/24 11:37:08;;;;;;;5.95;2.30;;;7.10;82.30;;;;;;4865444;29;20033;-85
2023/02/24 11:39:52;;;;;;;4.22;2.65;;;7.10;82.30;;;;;;4881256;29;20029;-85
2023/02/24 11:42:45;;;;;;;1.98;1.85;;;7.10;82.30;;;;;;4881613;29;20033;-85
2023/02/24 11:45:25;;;;;;;2.78;2.10;;;7.20;82.40;;;;;;4880659;29;20457;-85
2023/02/24 11:47:59;;;;;;;3.60;2.35;;;7.10;82.30;;;;;;4881021;29;20076;-86
2023/02/24 11:50:58;;;;;;;2.17;1.98;;;7.20;82.40;;;;;;4880560;29;20033;-86
2023/02/24 11:53:40;;;;;;;3.08;2.45;;;7.20;82.40;;;;;;4864440;29;20045;-86
2023/02/24 11:56:26;;;;;;;3.67;2.30;;;7.30;83.00;;;;;;4880455;29;20021;-87
2023/02/24 11:59:17;;;;;;;3.38;2.30;;;7.30;82.40;;;;;;4880431;29;20080;-86
2023/02/24 12:02:05;;;;;;;3.28;2.30;;;7.30;82.40;;;;;;4882028;29;20112;-85
2023/02/24 12:04:49;;;;;;;2.67;2.10;;;7.30;82.30;;;;;;4880636;29;20394;-86
2023/02/24 12:07:28;;;;;;;3.15;2.40;;;7.30;82.40;;;;;;4880472;29;20033;-85
2023/02/24 12:10:08;;;;;;;3.60;2.40;;;7.30;82.40;;;;;;4880446;29;20044;-86
2023/02/24 12:13:17;;;;;;;3.78;2.50;;;7.30;82.40;;;;;;4880330;29;20052;-85
2023/02/24 12:16:06;;;;;;;3.17;2.30;;;7.40;82.40;;;;;;4866391;29;20048;-85
2023/02/24 12:18:51;;;;;;;4.40;2.50;;;7.40;82.40;;;;;;4865034;29;20029;-85
2023/02/24 12:21:29;;;;;;;4.65;2.60;;;7.40;82.40;;;;;;4865285;29;20443;-85
2023/02/24 12:23:57;;;;;;;3.85;2.72;;;7.40;82.40;;;;;;4864193;29;20045;-85
2023/02/24 12:26:41;;;;;;;3.90;2.45;;;7.50;82.40;;;;;;4849613;29;20446;-88
2023/02/24 12:29:31;;;;;;;4.05;3.00;;;7.50;82.50;;;;;;4864663;29;20111;-86
2023/02/24 12:32:21;;;;;;;3.33;2.70;;;7.50;82.50;;;;;;4864686;29;20044;-85
2023/02/24 12:35:09;;;;;;;4.00;2.85;;;7.60;82.50;;;;;;4864495;29;20068;-84
2023/02/24 12:37:50;;;;;;;4.25;2.70;;;7.50;82.40;;;;;;4864852;29;20087;-85
2023/02/24 12:40:56;;;;;;;4.00;2.40;;;7.60;82.40;;;;;;4864896;29;20041;-85
2023/02/24 12:43:28;;;;;;;3.13;2.65;;;7.60;82.50;;;;;;4876577;29;20526;-82
2023/02/24 12:46:04;;;;;;;3.92;2.75;;;7.60;82.40;;;;;;4863857;29;20045;-84
2023/02/24 12:49:09;;;;;;;4.10;3.22;;;7.60;82.40;;;;;;4879567;29;20044;-82
2023/02/24 12:52:02;;;;;;;3.22;2.50;;;7.70;82.50;;;;;;4880006;29;20088;-86
2023/02/24 12:54:31;;;;;;;3.20;2.80;;;7.70;82.40;;;;;;4864519;29;20423;-86
2023/02/24 12:57:02;;;;;;;3.13;2.78;;;7.70;82.30;;;;;;4864276;29;20032;-84
2023/02/24 12:59:32;;;;;;;4.20;2.75;;;7.80;82.40;;;;;;4881072;29;20084;-86
2023/02/24 13:02:21;;;;;;;3.67;2.97;;;7.80;82.40;;;;;;4864337;29;20041;-85
2023/02/24 13:05:15;;;;;;;5.20;3.00;;;7.80;82.50;;;;;;4878788;29;20053;-83
2023/02/24 13:08:18;;;;;;;3.85;2.70;;;7.90;82.50;;;;;;4879656;29;20033;-86
2023/02/24 13:11:17;;;;;;;3.42;2.83;;;7.90;82.50;;;;;;4864018;29;20062;-87
2023/02/24 13:13:49;;;;;;;3.40;2.97;;;7.90;82.50;;;;;;4864424;29;20048;-85
2023/02/24 13:16:26;;;;;;;3.05;2.60;;;7.90;82.40;;;;;;4879462;29;20488;-84
2023/02/24 13:19:16;;;;;;;3.85;2.95;;;7.90;82.40;;;;;;4865760;29;20071;-85
2023/02/24 13:21:41;;;;;;;3.67;2.83;;;7.90;82.40;;;;;;4879418;29;20116;-84
2023/02/24 13:24:20;;;;;;;4.43;2.80;;;8.00;83.00;;;;;;4880477;29;20115;-85
2023/02/24 13:26:46;;;;;;;4.10;2.88;;;8.00;82.40;;;;;;4864086;29;20356;-85
2023/02/24 13:29:13;;;;;;;4.55;2.85;;;8.00;82.30;;;;;;4879139;29;20124;-85
2023/02/24 13:31:47;;;;;;;4.60;2.95;;;8.10;82.40;;;;;;4863610;29;20045;-84
2023/02/24 13:34:25;;;;;;;4.20;3.17;;;8.20;82.40;;;;;;4863969;29;20037;-84
2023/02/24 13:36:50;;;;;;;3.65;2.85;;;8.20;82.30;;;;;;4880780;29;20085;-84
2023/02/24 13:39:31;;;;;;;4.07;3.00;;;8.20;82.20;;;;;;4879701;29;20021;-86
2023/02/24 13:42:21;;;;;;;3.10;2.72;;;8.30;82.20;;;;;;4863963;29;20037;-86
2023/02/24 13:44:52;;;;;;;4.63;2.65;;;8.30;82.20;;;;;;4878465;29;20132;-85
2023/02/24 13:47:46;;;;;;;4.40;2.70;;;8.30;82.10;;;;;;4863791;29;20048;-84
2023/02/24 13:50:20;;;;;;;5.60;2.60;;;8.40;82.20;;;;;;4864268;29;20378;-83
2023/02/24 13:53:07;;;;;;;3.65;2.60;;;8.30;82.00;;;;;;4863641;29;20044;-85
2023/02/24 13:55:39;;;;;;;4.63;2.78;;;8.40;82.10;;;;;;4879125;29;20097;-83
2023/02/24 13:58:22;;;;;;;5.10;3.40;;;8.40;81.90;;;;;;4880404;29;20169;-80
2023/02/24 14:01:08;;;;;;;4.60;2.88;;;8.50;82.00;;;;;;4879127;29;20055;-85
2023/02/24 14:03:36;;;;;;;3.15;2.85;;;8.50;81.90;;;;;;4878446;29;20045;-83
2023/02/24 14:06:02;;;;;;;3.97;3.03;;;8.60;81.90;;;;;;4863601;29;20041;-84